Garoua International Airport


Codes: FKKR/GOU
Name: Garoua International Airport
City: Garoua
Country: Cameroon
Elevation: 794 ft.
Wikipedia:

Photos at Garoua International Airport


   Photos courtesy of SpottingLog. You can add your own sightings and photos by signing up for a free trial today.



No photos found.

Weather at Garoua International Airport


Time (UTC)DescriptionTempratureWindCloud coverageVisibilityPressureHumidity
21-Jun-2024 15:00Overcast Clouds37°C2 mph, SE100%10000m1007hPa32%
21-Jun-2024 18:00Overcast Clouds34°C0 mph, NW99%10000m1007hPa39%
21-Jun-2024 21:00Light Rain30°C7 mph, W100%10000m1009hPa53%
22-Jun-2024 00:00Light Rain27°C7 mph, W99%10000m1009hPa69%
22-Jun-2024 03:00Light Rain25°C4 mph, W80%10000m1010hPa83%
22-Jun-2024 06:00Overcast Clouds26°C4 mph, W87%10000m1012hPa81%
22-Jun-2024 09:00Overcast Clouds30°C9 mph, W86%10000m1012hPa64%
22-Jun-2024 12:00Overcast Clouds36°C7 mph, W88%10000m1008hPa40%
22-Jun-2024 15:00Overcast Clouds38°C4 mph, NW93%10000m1006hPa33%
22-Jun-2024 18:00Light Rain26°C7 mph, NW97%10000m1007hPa76%
22-Jun-2024 21:00Light Rain23°C7 mph, W100%10000m1011hPa88%
23-Jun-2024 00:00Light Rain23°C2 mph, SW100%10000m1010hPa90%
23-Jun-2024 03:00Light Rain23°C2 mph, E100%10000m1011hPa92%
23-Jun-2024 06:00Light Rain24°C4 mph, SE100%10000m1012hPa90%
23-Jun-2024 09:00Overcast Clouds27°C4 mph, SW100%10000m1012hPa78%
23-Jun-2024 12:00Overcast Clouds31°C4 mph, SW98%10000m1010hPa56%
23-Jun-2024 15:00Overcast Clouds33°C4 mph, SW93%10000m1008hPa47%
23-Jun-2024 18:00Light Rain28°C4 mph, W94%10000m1009hPa65%
23-Jun-2024 21:00Scattered Clouds26°C4 mph, W26%10000m1010hPa75%
24-Jun-2024 00:00Scattered Clouds25°C4 mph, W25%10000m1010hPa80%
24-Jun-2024 03:00Broken Clouds25°C4 mph, W68%10000m1010hPa78%
24-Jun-2024 06:00Broken Clouds26°C4 mph, W83%10000m1011hPa77%
24-Jun-2024 09:00Overcast Clouds32°C4 mph, SW90%10000m1011hPa50%
24-Jun-2024 12:00Broken Clouds37°C9 mph, E72%10000m1009hPa35%
24-Jun-2024 15:00Overcast Clouds31°C13 mph, SE90%10000m1009hPa53%
24-Jun-2024 18:00Overcast Clouds27°C2 mph, S93%10000m1008hPa71%
24-Jun-2024 21:00Few Clouds25°C4 mph, E20%10000m1010hPa75%
25-Jun-2024 00:00Few Clouds24°C2 mph, S20%10000m1010hPa77%
25-Jun-2024 03:00Broken Clouds24°C2 mph, S52%10000m1010hPa76%
25-Jun-2024 06:00Broken Clouds25°C2 mph, SE75%10000m1012hPa71%
25-Jun-2024 09:00Broken Clouds32°C2 mph, SE65%10000m1011hPa49%
25-Jun-2024 12:00Scattered Clouds37°C7 mph, SE39%10000m1008hPa30%
25-Jun-2024 15:00Broken Clouds37°C11 mph, SE62%10000m1006hPa30%
25-Jun-2024 18:00Broken Clouds30°C4 mph, E77%10000m1006hPa45%
25-Jun-2024 21:00Broken Clouds28°C4 mph, S55%10000m1009hPa54%
26-Jun-2024 00:00Light Rain26°C7 mph, W69%10000m1008hPa73%
26-Jun-2024 03:00Broken Clouds25°C4 mph, NW62%10000m1009hPa82%
26-Jun-2024 06:00Broken Clouds26°C7 mph, W55%10000m1011hPa74%
26-Jun-2024 09:00Light Rain29°C7 mph, W94%10000m1012hPa62%
26-Jun-2024 12:00Overcast Clouds35°C4 mph, NW96%10000m1009hPa40%